createdAt,value
2022-09-14T00:02:10.723Z,2.80
2022-09-14T00:05:13.332Z,2.72
2022-09-14T00:08:16.273Z,2.90
2022-09-14T00:11:19.581Z,2.60
2022-09-14T00:14:22.208Z,2.70
2022-09-14T00:17:24.536Z,3.07
2022-09-14T00:20:26.951Z,2.92
2022-09-14T00:23:29.581Z,2.85
2022-09-14T00:26:32.062Z,2.60
2022-09-14T00:29:34.506Z,2.93
2022-09-14T00:32:36.839Z,2.30
2022-09-14T00:35:39.909Z,2.80
2022-09-14T00:38:42.872Z,2.70
2022-09-14T00:41:47.025Z,3.63
2022-09-14T00:44:49.431Z,3.57
2022-09-14T00:47:53.687Z,3.30
2022-09-14T00:50:56.479Z,3.22
2022-09-14T00:54:02.768Z,3.42
2022-09-14T00:57:05.441Z,2.90
2022-09-14T01:00:10.976Z,2.87
2022-09-14T01:03:13.531Z,3.17
2022-09-14T01:06:50.036Z,2.83
2022-09-14T01:09:55.539Z,3.00
2022-09-14T01:13:24.011Z,3.03
2022-09-14T01:16:47.972Z,3.30
2022-09-14T01:19:53.360Z,3.20
2022-09-14T01:23:14.447Z,3.17
2022-09-14T01:26:35.842Z,2.80
2022-09-14T01:29:48.897Z,2.92
2022-09-14T01:33:01.208Z,2.90
2022-09-14T01:36:07.669Z,2.93
2022-09-14T01:39:11.943Z,3.00
2022-09-14T01:42:15.954Z,2.95
2022-09-14T01:45:21.115Z,2.60
2022-09-14T01:48:31.788Z,3.40
2022-09-14T01:51:41.414Z,3.27
2022-09-14T01:54:49.314Z,3.28
2022-09-14T01:57:58.975Z,2.92
2022-09-14T02:01:03.857Z,3.20
2022-09-14T02:04:10.289Z,3.30
2022-09-14T02:07:13.236Z,3.43
2022-09-14T02:10:17.184Z,3.45
2022-09-14T02:13:19.786Z,3.00
2022-09-14T02:16:23.619Z,3.22
2022-09-14T02:19:31.358Z,3.07
2022-09-14T02:22:34.082Z,3.30
2022-09-14T02:25:37.151Z,3.00
2022-09-14T02:28:39.684Z,3.00
2022-09-14T02:32:12.973Z,3.45
2022-09-14T02:35:24.461Z,3.60
2022-09-14T02:38:33.615Z,3.07
2022-09-14T02:41:46.357Z,3.65
2022-09-14T02:45:07.903Z,3.63
2022-09-14T02:48:16.870Z,3.85
2022-09-14T02:51:19.149Z,3.63
2022-09-14T02:54:28.365Z,3.63
2022-09-14T02:57:30.781Z,3.20
2022-09-14T03:00:38.263Z,3.13
2022-09-14T03:03:40.917Z,3.88
2022-09-14T03:06:43.232Z,4.30
2022-09-14T03:09:45.646Z,3.97
2022-09-14T03:12:48.366Z,3.42
2022-09-14T03:15:51.093Z,3.83
2022-09-14T03:18:53.566Z,3.97
2022-09-14T03:21:56.080Z,3.80
2022-09-14T03:24:58.517Z,3.97
2022-09-14T03:28:01.006Z,4.10
2022-09-14T03:31:05.711Z,3.80
2022-09-14T03:34:10.672Z,4.43
2022-09-14T03:37:13.201Z,4.07
2022-09-14T03:40:21.693Z,4.13
2022-09-14T03:43:24.389Z,4.00
2022-09-14T03:46:26.973Z,4.25
2022-09-14T03:49:29.425Z,4.40
2022-09-14T03:52:31.824Z,4.90
2022-09-14T03:55:34.322Z,4.83
2022-09-14T03:58:36.738Z,4.97
2022-09-14T04:01:39.208Z,5.28
2022-09-14T04:04:41.711Z,4.70
2022-09-14T04:07:44.047Z,5.23
2022-09-14T04:10:46.592Z,4.90
2022-09-14T04:13:49.891Z,4.78
2022-09-14T04:16:52.401Z,4.70
2022-09-14T04:19:54.785Z,4.88
2022-09-14T04:22:57.128Z,4.73
2022-09-14T04:25:59.620Z,6.03
2022-09-14T04:29:01.996Z,5.13
2022-09-14T04:32:10.808Z,5.57
2022-09-14T04:35:13.143Z,4.47
2022-09-14T04:38:15.483Z,4.77
2022-09-14T04:41:20.534Z,4.80
2022-09-14T04:44:22.903Z,4.88
2022-09-14T04:47:25.280Z,5.35
2022-09-14T04:50:27.652Z,5.53
2022-09-14T04:53:38.915Z,5.90
2022-09-14T04:56:41.496Z,5.50
2022-09-14T04:59:43.964Z,5.65
2022-09-14T05:02:46.491Z,5.40
2022-09-14T05:05:48.967Z,5.47
2022-09-14T05:08:53.422Z,5.13
2022-09-14T05:11:55.793Z,5.70
2022-09-14T05:14:58.140Z,6.15
2022-09-14T05:18:03.004Z,6.95
2022-09-14T05:21:08.555Z,6.30
2022-09-14T05:24:15.004Z,6.13
2022-09-14T05:27:17.428Z,5.80
2022-09-14T05:30:19.909Z,5.50
2022-09-14T05:33:22.961Z,6.05
2022-09-14T05:36:26.066Z,5.82
2022-09-14T05:39:28.497Z,5.70
2022-09-14T05:42:30.904Z,6.30
2022-09-14T05:45:34.469Z,5.45
2022-09-14T05:48:38.441Z,6.38
2022-09-14T05:51:40.824Z,6.38
2022-09-14T05:54:43.202Z,5.60
2022-09-14T05:57:50.271Z,5.90
2022-09-14T06:00:52.590Z,6.00
2022-09-14T06:03:56.910Z,6.25
2022-09-14T06:07:17.409Z,6.25
2022-09-14T06:10:21.902Z,5.60
2022-09-14T06:13:59.899Z,5.67
2022-09-14T06:17:03.063Z,5.45
2022-09-14T06:20:07.827Z,5.70
2022-09-14T06:23:10.221Z,5.32
2022-09-14T06:26:12.888Z,5.27
2022-09-14T06:29:15.307Z,5.43
2022-09-14T06:32:19.170Z,5.25
2022-09-14T06:35:22.303Z,5.88
2022-09-14T06:38:25.495Z,4.82
2022-09-14T06:41:33.017Z,5.45
2022-09-14T06:44:35.427Z,4.83
2022-09-14T06:47:37.914Z,4.72
2022-09-14T06:50:40.336Z,5.30
2022-09-14T06:53:43.429Z,4.60
2022-09-14T06:56:46.858Z,4.85
2022-09-14T06:59:49.367Z,4.17
2022-09-14T07:02:55.499Z,4.30
2022-09-14T07:06:03.375Z,4.35
2022-09-14T07:09:05.885Z,4.00
2022-09-14T07:12:09.712Z,4.20
2022-09-14T07:15:12.054Z,4.07
2022-09-14T07:18:15.531Z,4.10
2022-09-14T07:21:20.613Z,3.75
2022-09-14T07:24:23.012Z,3.83
2022-09-14T07:27:25.664Z,4.32
2022-09-14T07:30:29.321Z,3.90
2022-09-14T07:33:32.670Z,3.95
2022-09-14T07:36:36.683Z,3.53
2022-09-14T07:39:39.179Z,4.03
2022-09-14T07:42:41.567Z,3.95
2022-09-14T07:45:44.035Z,3.90
2022-09-14T07:48:47.162Z,4.00
2022-09-14T07:51:49.628Z,3.70
2022-09-14T07:54:52.006Z,3.58
2022-09-14T07:57:56.831Z,3.60
2022-09-14T08:01:01.319Z,3.53
2022-09-14T08:04:05.658Z,3.78
2022-09-14T08:07:09.117Z,3.60
2022-09-14T08:10:11.574Z,3.50
2022-09-14T08:13:14.079Z,3.42
2022-09-14T08:16:18.419Z,3.10
2022-09-14T08:19:20.991Z,3.10
2022-09-14T08:22:23.414Z,3.22
2022-09-14T08:25:25.915Z,3.80
2022-09-14T08:28:28.253Z,3.30
2022-09-14T08:31:31.176Z,3.10
2022-09-14T08:34:33.536Z,3.08
2022-09-14T08:37:35.873Z,2.97
2022-09-14T08:40:46.239Z,2.80
2022-09-14T08:43:48.854Z,3.30
2022-09-14T08:47:02.897Z,3.00
2022-09-14T08:50:20.912Z,2.85
2022-09-14T08:53:25.196Z,2.80
2022-09-14T08:56:34.322Z,2.95
2022-09-14T08:59:39.892Z,2.85
2022-09-14T09:03:00.737Z,2.80
2022-09-14T09:06:49.983Z,2.38
2022-09-14T09:09:57.561Z,2.90
2022-09-14T09:13:04.848Z,2.30
2022-09-14T09:16:10.391Z,2.50
2022-09-14T09:19:21.290Z,2.60
2022-09-14T09:22:26.742Z,2.13
2022-09-14T09:25:40.316Z,2.25
2022-09-14T09:28:49.870Z,2.35
2022-09-14T09:31:54.831Z,2.00
2022-09-14T09:35:26.877Z,2.30
2022-09-14T09:38:49.514Z,2.35
2022-09-14T09:42:07.062Z,2.22
2022-09-14T09:45:10.270Z,2.00
2022-09-14T09:48:14.280Z,1.90
2022-09-14T09:51:26.534Z,2.40
2022-09-14T09:54:32.155Z,2.28
2022-09-14T09:57:37.741Z,2.40
2022-09-14T10:00:40.214Z,2.08
2022-09-14T10:03:43.111Z,2.03
2022-09-14T10:06:51.329Z,2.10
2022-09-14T10:10:08.147Z,1.98
2022-09-14T10:13:22.645Z,2.20
2022-09-14T10:16:31.323Z,2.20
2022-09-14T10:19:34.291Z,1.98
2022-09-14T10:22:39.966Z,2.10
2022-09-14T10:25:42.337Z,2.30
2022-09-14T10:28:46.786Z,2.65
2022-09-14T10:31:50.256Z,2.40
2022-09-14T10:34:53.667Z,2.22
2022-09-14T10:38:18.695Z,2.27
2022-09-14T10:41:40.140Z,2.00
2022-09-14T10:45:09.467Z,2.22
2022-09-14T10:48:29.120Z,2.25
2022-09-14T10:51:50.419Z,2.13
2022-09-14T10:54:55.794Z,2.00
2022-09-14T10:58:24.780Z,2.40
2022-09-14T11:01:36.323Z,2.20
2022-09-14T11:05:09.796Z,1.92
2022-09-14T11:08:32.629Z,1.95
2022-09-14T11:11:47.059Z,1.90
2022-09-14T11:15:05.250Z,2.13
2022-09-14T11:18:27.872Z,2.30
2022-09-14T11:22:07.849Z,2.10
2022-09-14T11:25:16.689Z,2.55
2022-09-14T11:28:23.764Z,2.17
2022-09-14T11:31:30.247Z,2.58
2022-09-14T11:34:41.105Z,2.13
2022-09-14T11:37:50.306Z,2.25
2022-09-14T11:41:30.651Z,2.50
2022-09-14T11:44:39.341Z,2.20
2022-09-14T11:47:47.699Z,2.40
2022-09-14T11:50:53.733Z,2.13
2022-09-14T11:53:56.206Z,2.20
2022-09-14T11:57:03.732Z,2.25
2022-09-14T12:00:30.529Z,2.13
2022-09-14T12:04:11.479Z,2.20
2022-09-14T12:07:42.330Z,1.95
2022-09-14T12:11:09.276Z,2.28
2022-09-14T12:14:23.229Z,2.25
2022-09-14T12:17:40.203Z,4.73
2022-09-14T12:20:45.048Z,2.50
2022-09-14T12:23:52.490Z,2.20
2022-09-14T12:26:55.082Z,2.10
2022-09-14T12:29:57.429Z,2.25
2022-09-14T12:33:00.424Z,2.20
2022-09-14T12:36:37.129Z,2.28
2022-09-14T12:40:31.691Z,2.40
2022-09-14T12:43:37.333Z,2.25
2022-09-14T12:46:40.199Z,2.28
2022-09-14T12:49:42.819Z,2.00
2022-09-14T12:52:56.683Z,2.00
2022-09-14T12:56:13.055Z,2.05
2022-09-14T12:59:30.035Z,1.80
2022-09-14T13:02:41.681Z,1.70
2022-09-14T13:05:45.421Z,1.90
2022-09-14T13:08:51.967Z,1.80
2022-09-14T13:11:58.025Z,1.90
2022-09-14T13:15:06.773Z,1.60
2022-09-14T13:18:18.245Z,2.13
2022-09-14T13:21:24.021Z,2.20
2022-09-14T13:24:34.757Z,1.80
2022-09-14T13:27:38.506Z,2.20
2022-09-14T13:30:44.426Z,2.10
2022-09-14T13:33:51.710Z,2.33
2022-09-14T13:36:56.526Z,1.77
2022-09-14T13:39:59.685Z,1.90
2022-09-14T13:43:02.661Z,2.38
2022-09-14T13:46:10.843Z,2.08
2022-09-14T13:49:13.596Z,1.92
2022-09-14T13:52:21.987Z,2.03
2022-09-14T13:55:26.385Z,1.77
2022-09-14T13:58:32.559Z,2.13
2022-09-14T14:01:46.622Z,2.00
2022-09-14T14:04:49.829Z,2.03
2022-09-14T14:07:52.356Z,1.97
2022-09-14T14:10:55.456Z,2.13
2022-09-14T14:14:13.668Z,1.88
2022-09-14T14:17:20.139Z,2.10
2022-09-14T14:20:31.815Z,2.10
2022-09-14T14:23:34.281Z,2.10
2022-09-14T14:26:36.699Z,2.10
2022-09-14T14:29:39.211Z,1.90
2022-09-14T14:32:41.707Z,1.80
2022-09-14T14:35:45.222Z,1.60
2022-09-14T14:38:48.108Z,1.70
2022-09-14T14:41:51.577Z,1.80
2022-09-14T14:44:54.222Z,1.90
2022-09-14T14:47:56.820Z,1.80
2022-09-14T14:50:59.304Z,1.77
2022-09-14T14:54:01.662Z,1.80
2022-09-14T14:57:04.477Z,1.98
2022-09-14T15:00:15.732Z,2.03
2022-09-14T15:03:20.978Z,1.60
2022-09-14T15:06:27.359Z,2.00
2022-09-14T15:09:30.120Z,1.80
2022-09-14T15:12:33.477Z,1.80
2022-09-14T15:15:35.847Z,1.90
2022-09-14T15:18:38.731Z,2.10
2022-09-14T15:21:42.491Z,1.40
2022-09-14T15:24:44.883Z,1.70
2022-09-14T15:27:47.752Z,1.88
2022-09-14T15:30:51.851Z,2.28
2022-09-14T15:33:55.252Z,2.70
2022-09-14T15:36:58.904Z,1.80
2022-09-14T15:40:01.466Z,1.57
2022-09-14T15:43:04.254Z,1.77
2022-09-14T15:46:06.683Z,1.60
2022-09-14T15:49:12.799Z,1.45
2022-09-14T15:52:15.132Z,2.05
2022-09-14T15:55:17.533Z,1.60
2022-09-14T15:58:19.902Z,1.70
2022-09-14T16:01:22.397Z,1.80
2022-09-14T16:04:25.151Z,1.80
2022-09-14T16:07:29.695Z,1.98
2022-09-14T16:10:32.180Z,1.50
2022-09-14T16:13:35.715Z,1.80
2022-09-14T16:16:39.464Z,2.10
2022-09-14T16:19:41.867Z,2.08
2022-09-14T16:22:44.355Z,1.70
2022-09-14T16:25:46.712Z,2.10
2022-09-14T16:28:50.614Z,1.60
2022-09-14T16:31:53.850Z,1.90
2022-09-14T16:34:56.551Z,1.70
2022-09-14T16:37:58.909Z,1.90
2022-09-14T16:41:02.252Z,1.70
2022-09-14T16:44:05.728Z,1.80
2022-09-14T16:47:08.085Z,2.45
2022-09-14T16:50:10.568Z,1.85
2022-09-14T16:53:12.908Z,1.95
2022-09-14T16:56:19.370Z,2.17
2022-09-14T16:59:21.992Z,1.85
2022-09-14T17:02:24.461Z,1.60
2022-09-14T17:05:26.868Z,2.30
2022-09-14T17:08:30.327Z,1.60
2022-09-14T17:11:34.499Z,1.60
2022-09-14T17:14:37.290Z,2.05
2022-09-14T17:17:40.340Z,2.20
2022-09-14T17:20:53.631Z,1.52
2022-09-14T17:23:56.274Z,1.90
2022-09-14T17:26:58.651Z,1.70
2022-09-14T17:30:01.182Z,1.90
2022-09-14T17:33:03.741Z,1.83
2022-09-14T17:36:06.743Z,1.63
2022-09-14T17:39:12.265Z,1.65
2022-09-14T17:42:15.035Z,2.03
2022-09-14T17:45:17.454Z,2.00
2022-09-14T17:48:20.749Z,1.60
2022-09-14T17:51:25.621Z,2.13
2022-09-14T17:54:28.212Z,1.92
2022-09-14T17:57:30.663Z,1.70
2022-09-14T18:00:33.452Z,1.70
2022-09-14T18:03:37.554Z,1.80
2022-09-14T18:06:42.654Z,1.60
2022-09-14T18:09:45.026Z,1.77
2022-09-14T18:12:48.230Z,1.67
2022-09-14T18:15:55.384Z,1.75
2022-09-14T18:18:57.861Z,1.70
2022-09-14T18:22:00.547Z,1.80
2022-09-14T18:25:06.695Z,2.00
2022-09-14T18:28:09.712Z,1.50
2022-09-14T18:31:15.923Z,1.83
2022-09-14T18:34:19.217Z,1.85
2022-09-14T18:37:22.968Z,1.75
2022-09-14T18:40:25.546Z,1.88
2022-09-14T18:43:27.990Z,1.70
2022-09-14T18:46:31.142Z,1.80
2022-09-14T18:49:33.673Z,2.15
2022-09-14T18:52:36.255Z,1.83
2022-09-14T18:55:38.709Z,2.15
2022-09-14T18:58:45.099Z,1.47
2022-09-14T19:01:47.538Z,2.05
2022-09-14T19:04:50.143Z,2.08
2022-09-14T19:07:53.305Z,1.70
2022-09-14T19:10:55.756Z,2.00
2022-09-14T19:14:01.465Z,2.20
2022-09-14T19:17:03.856Z,2.00
2022-09-14T19:20:07.928Z,1.95
2022-09-14T19:23:10.434Z,1.70
2022-09-14T19:26:18.259Z,1.80
2022-09-14T19:29:22.682Z,1.60
2022-09-14T19:32:25.445Z,2.10
2022-09-14T19:35:28.046Z,2.55
2022-09-14T19:38:30.435Z,1.77
2022-09-14T19:41:52.934Z,1.70
2022-09-14T19:45:16.460Z,1.47
2022-09-14T19:48:18.818Z,1.60
2022-09-14T19:51:25.279Z,1.90
2022-09-14T19:54:27.954Z,1.77
2022-09-14T19:57:30.522Z,1.60
2022-09-14T20:00:33.537Z,1.97
2022-09-14T20:03:37.397Z,1.60
2022-09-14T20:06:42.800Z,1.70
2022-09-14T20:09:45.583Z,1.50
2022-09-14T20:12:47.933Z,1.67
2022-09-14T20:15:50.249Z,1.70
2022-09-14T20:18:52.798Z,1.40
2022-09-14T20:21:55.778Z,1.60
2022-09-14T20:24:59.239Z,1.60
2022-09-14T20:28:01.914Z,2.03
2022-09-14T20:31:06.924Z,1.90
2022-09-14T20:34:10.270Z,1.85
2022-09-14T20:37:12.599Z,1.75
2022-09-14T20:40:15.380Z,1.70
2022-09-14T20:43:18.155Z,1.63
2022-09-14T20:46:24.989Z,1.70
2022-09-14T20:49:27.495Z,1.77
2022-09-14T20:52:29.891Z,1.90
2022-09-14T20:55:32.805Z,1.90
2022-09-14T20:58:35.753Z,1.70
2022-09-14T21:01:40.359Z,2.00
2022-09-14T21:04:43.208Z,1.77
2022-09-14T21:07:55.539Z,2.17
2022-09-14T21:11:05.144Z,1.73
2022-09-14T21:14:08.713Z,1.90
2022-09-14T21:17:11.132Z,2.17
2022-09-14T21:20:13.863Z,1.90
2022-09-14T21:23:16.321Z,2.25
2022-09-14T21:26:19.843Z,2.72
2022-09-14T21:29:23.878Z,2.20
2022-09-14T21:32:26.580Z,1.90
2022-09-14T21:35:33.436Z,2.20
2022-09-14T21:38:37.059Z,2.10
2022-09-14T21:41:40.738Z,2.63
2022-09-14T21:44:43.323Z,1.85
2022-09-14T21:47:46.531Z,1.80
2022-09-14T21:50:49.439Z,2.20
2022-09-14T21:54:12.827Z,2.20
2022-09-14T21:57:15.361Z,2.10
2022-09-14T22:00:18.924Z,2.13
2022-09-14T22:03:21.384Z,1.83
2022-09-14T22:06:27.315Z,1.67
2022-09-14T22:09:29.937Z,1.77
2022-09-14T22:12:32.330Z,1.80
2022-09-14T22:15:35.060Z,1.80
2022-09-14T22:18:39.160Z,1.70
2022-09-14T22:21:41.578Z,1.90
2022-09-14T22:24:44.263Z,1.80
2022-09-14T22:27:46.842Z,1.80
2022-09-14T22:30:55.033Z,2.00
2022-09-14T22:33:58.765Z,1.90
2022-09-14T22:37:01.882Z,1.77
2022-09-14T22:40:05.676Z,1.95
2022-09-14T22:43:08.600Z,2.40
2022-09-14T22:46:12.415Z,1.80
2022-09-14T22:49:15.222Z,1.80
2022-09-14T22:52:18.155Z,1.60
2022-09-14T22:55:21.162Z,2.08
2022-09-14T22:58:26.098Z,1.67
2022-09-14T23:01:31.655Z,1.90
2022-09-14T23:04:34.870Z,1.83
2022-09-14T23:07:37.330Z,1.70
2022-09-14T23:10:40.119Z,1.70
2022-09-14T23:13:43.302Z,1.70
2022-09-14T23:16:46.098Z,1.83
2022-09-14T23:19:48.922Z,1.70
2022-09-14T23:22:51.802Z,1.77
2022-09-14T23:25:54.718Z,1.70
2022-09-14T23:29:04.776Z,1.70
2022-09-14T23:32:07.734Z,1.60
2022-09-14T23:35:11.704Z,1.70
2022-09-14T23:38:15.141Z,1.52
2022-09-14T23:41:19.700Z,2.03
2022-09-14T23:44:22.436Z,1.70
2022-09-14T23:47:25.167Z,1.80
2022-09-14T23:50:28.539Z,1.53
2022-09-14T23:53:32.092Z,1.90
2022-09-14T23:56:36.318Z,1.40
2022-09-14T23:59:39.035Z,1.63
